createdAt,value
2023-02-22T00:01:56.674Z,44.00
2023-02-22T00:04:24.417Z,47.53
2023-02-22T00:06:52.286Z,52.48
2023-02-22T00:09:21.742Z,57.15
2023-02-22T00:11:49.480Z,38.08
2023-02-22T00:14:18.971Z,43.83
2023-02-22T00:16:46.738Z,30.50
2023-02-22T00:19:14.578Z,29.45
2023-02-22T00:21:44.352Z,22.93
2023-02-22T00:24:24.230Z,21.60
2023-02-22T00:26:57.231Z,15.35
2023-02-22T00:29:25.692Z,18.42
2023-02-22T00:31:53.781Z,17.87
2023-02-22T00:34:23.622Z,16.82
2023-02-22T00:36:51.321Z,15.08
2023-02-22T00:39:18.644Z,15.15
2023-02-22T00:41:46.505Z,16.60
2023-02-22T00:44:14.246Z,11.12
2023-02-22T00:46:42.151Z,10.10
2023-02-22T00:51:36.268Z,8.58
2023-02-22T00:54:04.913Z,10.98
2023-02-22T00:56:34.088Z,9.98
2023-02-22T00:59:01.758Z,7.50
2023-02-22T01:01:31.655Z,5.67
2023-02-22T01:03:59.539Z,8.20
2023-02-22T01:06:30.252Z,4.70
2023-02-22T01:11:26.573Z,5.42
2023-02-22T01:16:22.362Z,6.55
2023-02-22T01:18:51.356Z,8.83
2023-02-22T01:21:18.651Z,10.85
2023-02-22T01:23:47.011Z,19.32
2023-02-22T01:26:17.139Z,12.45
2023-02-22T01:28:44.952Z,7.75
2023-02-22T01:31:12.800Z,18.57
2023-02-22T01:33:40.993Z,8.98
2023-02-22T01:36:10.883Z,13.40
2023-02-22T01:38:39.330Z,15.53
2023-02-22T01:41:07.386Z,8.25
2023-02-22T01:43:36.850Z,10.40
2023-02-22T01:46:09.704Z,8.63
2023-02-22T01:51:23.343Z,8.48
2023-02-22T01:54:14.843Z,8.63
2023-02-22T01:59:11.647Z,9.43
2023-02-22T02:04:11.174Z,10.32
2023-02-22T02:09:30.622Z,11.00
2023-02-22T02:14:27.367Z,9.78
2023-02-22T02:16:56.102Z,6.03
2023-02-22T02:19:58.862Z,6.87
2023-02-22T02:22:54.857Z,6.60
2023-02-22T02:25:49.285Z,7.08
2023-02-22T02:28:54.876Z,5.22
2023-02-22T02:36:43.898Z,8.83
2023-02-22T02:39:30.460Z,12.60
2023-02-22T02:42:03.702Z,14.70
2023-02-22T02:44:42.539Z,17.67
2023-02-22T02:47:26.192Z,29.75
2023-02-22T02:52:46.163Z,29.80
2023-02-22T02:57:41.949Z,29.63
2023-02-22T03:02:59.627Z,22.65
2023-02-22T03:05:35.586Z,12.78
2023-02-22T03:08:27.003Z,13.80
2023-02-22T03:11:13.746Z,8.68
2023-02-22T03:16:35.871Z,8.73
2023-02-22T03:19:34.976Z,9.85
2023-02-22T03:30:11.796Z,10.15
2023-02-22T03:32:44.145Z,8.65
2023-02-22T03:37:55.484Z,15.70
2023-02-22T03:40:34.997Z,41.13
2023-02-22T03:45:30.926Z,32.28
2023-02-22T03:50:29.688Z,13.18
2023-02-22T03:55:25.676Z,7.53
2023-02-22T04:00:24.382Z,5.35
2023-02-22T04:02:52.444Z,5.08
2023-02-22T04:05:20.775Z,4.85
2023-02-22T04:10:17.115Z,5.42
2023-02-22T04:15:16.165Z,7.20
2023-02-22T04:17:44.463Z,12.43
2023-02-22T04:20:14.394Z,12.70
2023-02-22T04:22:43.931Z,15.63
2023-02-22T04:25:11.752Z,14.55
2023-02-22T04:27:39.983Z,19.40
2023-02-22T04:30:09.290Z,32.03
2023-02-22T04:32:38.589Z,30.90
2023-02-22T04:35:07.675Z,27.77
2023-02-22T04:37:36.714Z,28.80
2023-02-22T04:40:07.587Z,30.52
2023-02-22T04:42:36.752Z,33.70
2023-02-22T04:47:35.851Z,80.95
2023-02-22T04:52:30.727Z,58.10
2023-02-22T04:54:58.583Z,89.87
2023-02-22T04:57:26.724Z,76.05
2023-02-22T04:59:54.450Z,54.63
2023-02-22T05:02:23.919Z,50.63
2023-02-22T05:04:51.814Z,42.78
2023-02-22T05:07:19.627Z,36.03
2023-02-22T05:09:47.503Z,32.80
2023-02-22T05:12:15.740Z,28.02
2023-02-22T05:14:44.162Z,27.80
2023-02-22T05:17:12.314Z,24.70
2023-02-22T05:19:41.637Z,33.60
2023-02-22T05:22:09.372Z,31.17
2023-02-22T05:24:38.033Z,32.42
2023-02-22T05:27:05.779Z,43.52
2023-02-22T05:29:33.384Z,48.55
2023-02-22T05:34:28.302Z,49.33
2023-02-22T05:36:56.345Z,62.48
2023-02-22T05:39:24.008Z,78.95
2023-02-22T05:41:51.965Z,84.10
2023-02-22T05:46:46.095Z,94.70
2023-02-22T05:51:40.530Z,70.20
2023-02-22T05:54:08.224Z,59.65
2023-02-22T05:56:36.222Z,59.50
2023-02-22T05:59:04.155Z,62.93
2023-02-22T06:01:31.620Z,72.15
2023-02-22T06:03:59.527Z,49.73
2023-02-22T06:06:27.642Z,44.18
2023-02-22T06:08:55.880Z,42.58
2023-02-22T06:13:53.494Z,41.10
2023-02-22T06:18:48.576Z,41.28
2023-02-22T06:23:45.282Z,42.20
2023-02-22T06:26:18.899Z,56.02
2023-02-22T06:28:47.193Z,73.95
2023-02-22T06:31:15.262Z,80.72
2023-02-22T06:33:43.467Z,74.05
2023-02-22T06:36:11.431Z,74.67
2023-02-22T06:38:39.422Z,66.02
2023-02-22T06:43:35.849Z,44.42
2023-02-22T06:46:04.084Z,41.42
2023-02-22T06:48:30.711Z,48.10
2023-02-22T06:50:58.632Z,44.20
2023-02-22T06:53:26.687Z,38.53
2023-02-22T06:55:54.869Z,36.25
2023-02-22T06:58:22.753Z,40.45
2023-02-22T07:00:50.808Z,44.70
2023-02-22T07:03:19.011Z,39.73
2023-02-22T07:05:48.346Z,39.75
2023-02-22T07:08:16.041Z,37.88
2023-02-22T07:10:44.330Z,34.83
2023-02-22T07:13:12.285Z,45.58
2023-02-22T07:15:39.950Z,40.30
2023-02-22T07:18:09.768Z,34.38
2023-02-22T07:23:16.888Z,27.87
2023-02-22T07:25:44.193Z,71.82
2023-02-22T07:28:12.616Z,25.30
2023-02-22T07:30:40.704Z,10.10
2023-02-22T07:35:47.785Z,4.80
2023-02-22T07:38:20.787Z,5.17
2023-02-22T07:40:48.990Z,4.95
2023-02-22T07:43:23.989Z,5.45
2023-02-22T07:45:56.656Z,7.40
2023-02-22T07:48:27.766Z,8.40
2023-02-22T07:50:56.180Z,5.95
2023-02-22T07:55:54.897Z,12.15
2023-02-22T07:58:26.492Z,6.50
2023-02-22T08:00:54.640Z,9.65
2023-02-22T08:05:56.019Z,11.97
2023-02-22T08:10:50.855Z,6.37
2023-02-22T08:15:46.518Z,30.23
2023-02-22T08:18:18.019Z,10.35
2023-02-22T08:20:48.110Z,10.25
2023-02-22T08:23:17.522Z,12.85
2023-02-22T08:25:45.780Z,8.10
2023-02-22T08:28:17.717Z,7.72
2023-02-22T08:30:45.890Z,9.80
2023-02-22T08:33:18.175Z,11.80
2023-02-22T08:38:28.363Z,7.90
2023-02-22T08:40:56.127Z,36.53
2023-02-22T08:43:24.463Z,11.40
2023-02-22T08:45:52.685Z,8.93
2023-02-22T08:48:21.068Z,14.00
2023-02-22T08:50:49.424Z,9.45
2023-02-22T08:53:17.987Z,5.37
2023-02-22T08:55:46.162Z,9.10
2023-02-22T08:58:13.971Z,6.87
2023-02-22T09:00:43.993Z,10.20
2023-02-22T09:05:43.291Z,12.23
2023-02-22T09:10:38.473Z,5.83
2023-02-22T09:13:06.700Z,6.45
2023-02-22T09:15:35.668Z,38.58
2023-02-22T09:20:32.394Z,7.20
2023-02-22T09:23:01.868Z,32.63
2023-02-22T09:25:29.695Z,5.80
2023-02-22T09:27:57.701Z,16.42
2023-02-22T09:30:32.649Z,14.40
2023-02-22T09:33:14.019Z,42.65
2023-02-22T09:35:45.780Z,7.90
2023-02-22T09:38:16.845Z,23.18
2023-02-22T09:40:53.815Z,19.73
2023-02-22T09:43:27.351Z,24.35
2023-02-22T09:46:27.678Z,17.30
2023-02-22T09:49:05.880Z,23.02
2023-02-22T09:51:41.618Z,19.10
2023-02-22T09:54:22.814Z,17.40
2023-02-22T09:59:21.864Z,15.35
2023-02-22T10:01:57.883Z,35.03
2023-02-22T10:04:36.647Z,12.35
2023-02-22T10:07:29.937Z,13.03
2023-02-22T10:10:02.522Z,17.02
2023-02-22T10:12:44.872Z,15.10
2023-02-22T10:15:48.291Z,13.25
2023-02-22T10:18:44.865Z,25.77
2023-02-22T10:21:23.722Z,15.45
2023-02-22T10:24:45.754Z,20.10
2023-02-22T10:30:24.536Z,26.93
2023-02-22T10:35:27.551Z,20.00
2023-02-22T10:37:59.946Z,42.43
2023-02-22T10:43:11.045Z,16.07
2023-02-22T10:45:40.398Z,9.53
2023-02-22T10:48:17.851Z,12.75
2023-02-22T10:50:48.030Z,11.40
2023-02-22T10:53:15.914Z,51.80
2023-02-22T10:56:12.480Z,6.67
2023-02-22T11:04:22.491Z,7.53
2023-02-22T11:07:20.238Z,10.18
2023-02-22T11:09:58.917Z,8.83
2023-02-22T11:15:21.658Z,30.20
2023-02-22T11:17:54.642Z,11.38
2023-02-22T11:20:34.333Z,40.00
2023-02-22T11:23:04.773Z,26.20
2023-02-22T11:30:50.643Z,21.75
2023-02-22T11:35:54.163Z,11.48
2023-02-22T11:38:25.911Z,28.50
2023-02-22T11:41:17.481Z,10.80
2023-02-22T11:43:49.544Z,15.48
2023-02-22T11:49:10.072Z,10.25
2023-02-22T11:52:07.608Z,28.02
2023-02-22T11:57:46.044Z,18.73
2023-02-22T12:00:25.501Z,6.28
2023-02-22T12:03:20.375Z,20.75
2023-02-22T12:06:24.243Z,11.12
2023-02-22T12:09:09.138Z,9.78
2023-02-22T12:12:09.332Z,15.80
2023-02-22T12:15:15.454Z,8.88
2023-02-22T12:18:02.667Z,11.73
2023-02-22T12:23:09.217Z,6.00
2023-02-22T12:25:48.065Z,6.17
2023-02-22T12:28:27.219Z,10.63
2023-02-22T12:31:15.805Z,12.53
2023-02-22T12:36:14.500Z,7.45
2023-02-22T12:41:13.511Z,7.42
2023-02-22T12:43:52.967Z,13.20
2023-02-22T12:49:04.471Z,11.30
2023-02-22T12:51:40.761Z,16.37
2023-02-22T12:54:22.008Z,12.65
2023-02-22T12:56:57.092Z,35.20
2023-02-22T12:59:50.627Z,13.72
2023-02-22T13:02:42.354Z,11.25
2023-02-22T13:05:18.447Z,18.57
2023-02-22T13:08:28.714Z,35.05
2023-02-22T13:11:19.401Z,21.35
2023-02-22T13:14:07.357Z,15.70
2023-02-22T13:16:40.445Z,63.68
2023-02-22T13:19:21.554Z,35.85
2023-02-22T13:22:12.285Z,15.83
2023-02-22T13:25:00.480Z,18.35
2023-02-22T13:29:58.458Z,15.78
2023-02-22T13:35:21.015Z,10.45
2023-02-22T13:43:29.966Z,17.98
2023-02-22T13:48:47.834Z,10.80
2023-02-22T13:51:52.096Z,10.85
2023-02-22T13:54:31.310Z,7.78
2023-02-22T13:56:59.023Z,11.55
2023-02-22T13:59:36.148Z,10.55
2023-02-22T14:02:07.394Z,34.98
2023-02-22T14:04:40.300Z,16.23
2023-02-22T14:07:30.751Z,9.08
2023-02-22T14:10:00.555Z,10.50
2023-02-22T14:12:49.227Z,11.00
2023-02-22T14:17:46.289Z,10.00
2023-02-22T14:20:27.206Z,20.62
2023-02-22T14:22:55.232Z,28.12
2023-02-22T14:28:31.297Z,9.68
2023-02-22T14:31:33.310Z,15.35
2023-02-22T14:37:03.758Z,17.00
2023-02-22T14:39:45.474Z,16.85
2023-02-22T14:42:33.826Z,23.80
2023-02-22T14:45:12.970Z,9.83
2023-02-22T14:48:09.387Z,16.52
2023-02-22T14:50:45.437Z,16.05
2023-02-22T14:56:06.368Z,18.05
2023-02-22T14:59:00.292Z,13.38
2023-02-22T15:01:47.521Z,19.00
2023-02-22T15:04:25.189Z,29.85
2023-02-22T15:06:55.134Z,28.85
2023-02-22T15:09:29.685Z,19.50
2023-02-22T15:12:08.372Z,23.18
2023-02-22T15:14:39.430Z,18.62
2023-02-22T15:17:18.492Z,21.95
2023-02-22T15:22:29.253Z,38.85
2023-02-22T15:25:02.258Z,35.00
2023-02-22T15:27:30.013Z,33.80
2023-02-22T15:30:02.583Z,38.85
2023-02-22T15:32:44.828Z,40.73
2023-02-22T15:35:21.602Z,48.13
2023-02-22T15:38:05.568Z,66.30
2023-02-22T15:40:34.749Z,39.55
2023-02-22T15:45:35.058Z,38.05
2023-02-22T15:48:03.050Z,39.40
2023-02-22T15:50:33.669Z,35.43
2023-02-22T15:53:27.051Z,30.20
2023-02-22T15:55:58.717Z,50.50
2023-02-22T16:01:06.735Z,47.65
2023-02-22T16:03:41.858Z,63.50
2023-02-22T16:08:54.789Z,96.57
2023-02-22T16:11:34.696Z,57.40
2023-02-22T16:14:07.247Z,58.08
2023-02-22T16:16:40.941Z,54.42
2023-02-22T16:19:26.253Z,52.83
2023-02-22T16:24:33.089Z,80.67
2023-02-22T16:29:45.325Z,102.30
2023-02-22T16:34:41.133Z,111.60
2023-02-22T16:37:21.493Z,86.15
2023-02-22T16:39:52.273Z,78.97
2023-02-22T16:42:22.487Z,77.97
2023-02-22T16:47:17.815Z,71.28
2023-02-22T16:49:52.197Z,68.80
2023-02-22T16:52:20.515Z,60.52
2023-02-22T16:54:51.359Z,67.30
2023-02-22T16:57:22.477Z,80.42
2023-02-22T16:59:52.267Z,70.40
2023-02-22T17:02:20.576Z,69.35
2023-02-22T17:04:51.597Z,68.45
2023-02-22T17:09:52.915Z,71.75
2023-02-22T17:12:20.848Z,63.75
2023-02-22T17:14:50.617Z,66.37
2023-02-22T17:17:18.199Z,66.75
2023-02-22T17:19:45.907Z,73.35
2023-02-22T17:24:46.241Z,75.70
2023-02-22T17:29:41.764Z,63.35
2023-02-22T17:34:40.244Z,161.03
2023-02-22T17:39:35.048Z,126.62
2023-02-22T17:42:03.042Z,61.13
2023-02-22T17:44:31.280Z,45.52
2023-02-22T17:47:10.378Z,44.67
2023-02-22T17:49:38.909Z,44.27
2023-02-22T17:52:06.972Z,41.37
2023-02-22T17:54:33.854Z,44.85
2023-02-22T17:57:01.817Z,39.33
2023-02-22T17:59:29.895Z,53.15
2023-02-22T18:01:57.542Z,57.17
2023-02-22T18:04:25.373Z,60.65
2023-02-22T18:06:53.116Z,55.20
2023-02-22T18:09:20.848Z,51.40
2023-02-22T18:11:48.714Z,48.15
2023-02-22T18:14:16.768Z,62.55
2023-02-22T18:16:46.574Z,43.00
2023-02-22T18:19:17.736Z,46.90
2023-02-22T18:21:46.163Z,46.88
2023-02-22T18:24:13.685Z,48.30
2023-02-22T18:26:41.507Z,55.12
2023-02-22T18:29:11.096Z,56.10
2023-02-22T18:31:39.118Z,62.88
2023-02-22T18:36:33.413Z,63.92
2023-02-22T18:39:01.197Z,63.70
2023-02-22T18:41:29.413Z,50.08
2023-02-22T18:43:59.366Z,42.40
2023-02-22T18:46:29.163Z,46.70
2023-02-22T18:48:59.058Z,48.63
2023-02-22T18:51:28.916Z,53.10
2023-02-22T18:56:34.202Z,62.10
2023-02-22T18:59:05.911Z,60.23
2023-02-22T19:01:40.347Z,66.33
2023-02-22T19:04:10.394Z,153.15
2023-02-22T19:09:08.115Z,66.28
2023-02-22T19:11:36.843Z,53.68
2023-02-22T19:14:07.892Z,53.95
2023-02-22T19:16:35.620Z,58.38
2023-02-22T19:19:03.485Z,54.75
2023-02-22T19:21:32.520Z,55.63
2023-02-22T19:24:04.549Z,58.42
2023-02-22T19:26:32.427Z,55.08
2023-02-22T19:29:07.509Z,68.78
2023-02-22T19:34:11.481Z,58.02
2023-02-22T19:39:06.818Z,62.95
2023-02-22T19:44:01.903Z,60.98
2023-02-22T19:48:56.226Z,60.65
2023-02-22T19:51:27.747Z,57.48
2023-02-22T19:54:05.884Z,56.37
2023-02-22T19:56:34.962Z,54.77
2023-02-22T20:01:37.462Z,48.30
2023-02-22T20:04:12.413Z,47.03
2023-02-22T20:06:42.731Z,45.50
2023-02-22T20:09:26.499Z,52.10
2023-02-22T20:11:54.634Z,47.00
2023-02-22T20:16:55.135Z,51.35
2023-02-22T20:21:52.010Z,51.45
2023-02-22T20:24:19.908Z,47.55
2023-02-22T20:26:49.095Z,51.58
2023-02-22T20:31:47.222Z,60.58
2023-02-22T20:36:43.494Z,51.48
2023-02-22T20:41:44.533Z,59.67
2023-02-22T20:44:18.480Z,51.73
2023-02-22T20:46:56.839Z,55.25
2023-02-22T20:49:26.696Z,68.52
2023-02-22T20:51:54.890Z,52.62
2023-02-22T20:54:22.935Z,55.52
2023-02-22T20:59:24.161Z,66.20
2023-02-22T21:01:52.801Z,120.70
2023-02-22T21:04:24.959Z,74.10
2023-02-22T21:06:53.508Z,62.55
2023-02-22T21:09:22.007Z,62.38
2023-02-22T21:11:51.195Z,62.62
2023-02-22T21:14:19.844Z,62.48
2023-02-22T21:16:51.703Z,63.52
2023-02-22T21:19:22.377Z,56.85
2023-02-22T21:24:21.342Z,57.40
2023-02-22T21:29:15.331Z,68.12
2023-02-22T21:31:43.370Z,71.62
2023-02-22T21:34:15.479Z,74.03
2023-02-22T21:39:18.601Z,65.92
2023-02-22T21:41:49.614Z,70.78
2023-02-22T21:44:19.637Z,65.10
2023-02-22T21:46:49.256Z,67.53
2023-02-22T21:49:18.365Z,61.25
2023-02-22T21:51:46.230Z,58.30
2023-02-22T21:54:16.286Z,58.55
2023-02-22T21:56:44.167Z,61.50
2023-02-22T21:59:17.813Z,91.28
2023-02-22T22:01:53.482Z,94.05
2023-02-22T22:04:28.792Z,62.48
2023-02-22T22:06:59.422Z,59.55
2023-02-22T22:09:30.857Z,63.00
2023-02-22T22:14:30.776Z,56.48
2023-02-22T22:19:28.616Z,42.90
2023-02-22T22:22:00.431Z,40.45
2023-02-22T22:24:33.437Z,40.30
2023-02-22T22:27:03.184Z,41.20
2023-02-22T22:29:33.147Z,55.38
2023-02-22T22:32:01.485Z,52.03
2023-02-22T22:34:29.674Z,46.35
2023-02-22T22:36:58.309Z,57.43
2023-02-22T22:39:26.792Z,58.02
2023-02-22T22:41:55.249Z,59.00
2023-02-22T22:44:26.161Z,63.17
2023-02-22T22:46:56.023Z,54.15
2023-02-22T22:51:50.544Z,53.83
2023-02-22T22:54:18.276Z,50.00
2023-02-22T22:56:46.208Z,47.35
2023-02-22T22:59:14.963Z,49.60
2023-02-22T23:01:44.439Z,49.05
2023-02-22T23:06:46.837Z,49.05
2023-02-22T23:11:43.991Z,43.33
2023-02-22T23:16:38.755Z,46.92
2023-02-22T23:21:32.537Z,45.35
2023-02-22T23:24:00.439Z,39.83
2023-02-22T23:26:28.472Z,37.78
2023-02-22T23:28:58.763Z,35.38
2023-02-22T23:31:28.321Z,36.73
2023-02-22T23:33:58.217Z,41.65
2023-02-22T23:36:26.943Z,37.53
2023-02-22T23:38:55.410Z,30.10
2023-02-22T23:41:24.704Z,27.55
2023-02-22T23:43:53.445Z,30.77
2023-02-22T23:46:21.220Z,24.23
2023-02-22T23:48:52.351Z,28.05
2023-02-22T23:51:27.419Z,24.02
2023-02-22T23:53:56.632Z,25.25
2023-02-22T23:56:28.037Z,24.12
2023-02-22T23:58:56.704Z,23.25
